Terminal Aerodrome Forecast
Issued by NWS Charleston, WV

Current Version | Previous Version | Text Only | Print | Product List | Glossary Off
Versions: 1 2 3 4 5 6 7 8 9 10 11 12 13 14 15 16 17 18 19 20 21 22 23 24 25

000
FTUS41 KRLX 271800 AAA
TAFBKW
TAF AMD
KBKW 271844Z 2719/2818 30010G15KT P6SM BKN040
     FM280200 32008KT P6SM BKN035
     FM281200 33009KT P6SM BKN025
     FM281600 32013G22KT P6SM SCT025=

USA.gov is the U.S. government's official web portal to all federal, state and local government web resources and services.